createdAt,value
2018-11-23T00:00:22.957Z,85.90
2018-11-23T00:02:52.130Z,85.90
2018-11-23T00:05:21.122Z,86.00
2018-11-23T00:07:50.233Z,86.10
2018-11-23T00:10:20.168Z,86.20
2018-11-23T00:12:49.118Z,86.30
2018-11-23T00:15:19.057Z,86.40
2018-11-23T00:17:47.903Z,86.40
2018-11-23T00:20:21.855Z,86.60
2018-11-23T00:22:50.645Z,86.70
2018-11-23T00:25:20.551Z,86.80
2018-11-23T00:27:49.687Z,86.90
2018-11-23T00:30:20.060Z,86.80
2018-11-23T00:32:49.277Z,86.90
2018-11-23T00:35:20.662Z,87.00
2018-11-23T00:37:49.865Z,87.00
2018-11-23T00:40:23.708Z,87.00
2018-11-23T00:42:52.773Z,86.90
2018-11-23T00:45:21.726Z,86.30
2018-11-23T00:47:51.105Z,86.90
2018-11-23T00:50:21.038Z,87.20
2018-11-23T00:52:50.334Z,87.40
2018-11-23T00:55:20.022Z,87.00
2018-11-23T00:57:48.800Z,87.30
2018-11-23T01:00:24.030Z,87.50
2018-11-23T01:02:53.274Z,87.50
2018-11-23T01:05:22.091Z,87.40
2018-11-23T01:07:50.884Z,87.60
2018-11-23T01:10:20.861Z,87.40
2018-11-23T01:12:50.453Z,87.70
2018-11-23T01:15:19.256Z,87.80
2018-11-23T01:17:48.031Z,87.60
2018-11-23T01:20:18.289Z,87.40
2018-11-23T01:22:47.440Z,86.40
2018-11-23T01:25:17.394Z,87.00
2018-11-23T01:27:47.297Z,87.00
2018-11-23T01:30:20.386Z,87.10
2018-11-23T01:32:49.181Z,86.80
2018-11-23T01:35:17.966Z,87.00
2018-11-23T01:37:46.757Z,87.20
2018-11-23T01:40:24.314Z,87.40
2018-11-23T01:42:53.643Z,87.40
2018-11-23T01:45:22.454Z,87.40
2018-11-23T01:47:51.288Z,87.30
2018-11-23T01:50:21.441Z,87.10
2018-11-23T01:52:50.853Z,87.30
2018-11-23T01:55:20.584Z,87.30
2018-11-23T01:57:49.425Z,87.30
2018-11-23T02:00:25.625Z,87.30
2018-11-23T02:02:55.011Z,87.50
2018-11-23T02:05:23.840Z,87.50
2018-11-23T02:07:52.628Z,87.40
2018-11-23T02:10:21.393Z,87.20
2018-11-23T02:12:50.250Z,87.00
2018-11-23T02:15:20.117Z,87.00
2018-11-23T02:17:49.400Z,87.20
2018-11-23T02:20:19.190Z,87.20
2018-11-23T02:22:47.945Z,87.40
2018-11-23T02:25:16.712Z,87.50
2018-11-23T02:27:45.498Z,87.40
2018-11-23T02:30:16.538Z,87.30
2018-11-23T02:32:45.505Z,87.30
2018-11-23T02:35:14.999Z,87.50
2018-11-23T02:37:43.833Z,87.50
2018-11-23T02:40:13.849Z,87.50
2018-11-23T02:42:42.653Z,87.30
2018-11-23T02:45:16.465Z,87.00
2018-11-23T02:47:45.884Z,87.00
2018-11-23T02:50:14.703Z,86.90
2018-11-23T02:52:43.897Z,86.90
2018-11-23T02:55:13.924Z,86.80
2018-11-23T02:57:42.742Z,86.80
2018-11-23T03:00:15.066Z,87.10
2018-11-23T03:02:44.045Z,86.80
2018-11-23T03:05:14.808Z,86.60
2018-11-23T03:07:43.792Z,86.90
2018-11-23T03:10:13.737Z,87.10
2018-11-23T03:12:43.098Z,87.40
2018-11-23T03:15:13.955Z,87.30
2018-11-23T03:17:43.445Z,87.80
2018-11-23T03:20:14.602Z,87.80
2018-11-23T03:22:43.392Z,87.80
2018-11-23T03:25:12.611Z,88.00
2018-11-23T03:27:41.369Z,88.10
2018-11-23T03:30:12.381Z,87.90
2018-11-23T03:32:41.153Z,88.00
2018-11-23T03:35:09.970Z,88.00
2018-11-23T03:37:38.984Z,88.20
2018-11-23T03:40:07.767Z,88.90
2018-11-23T03:42:36.533Z,87.80
2018-11-23T03:45:06.647Z,87.90
2018-11-23T03:47:35.405Z,88.20
2018-11-23T03:50:04.308Z,87.70
2018-11-23T03:52:33.110Z,88.40
2018-11-23T03:55:01.905Z,88.50
2018-11-23T03:57:30.741Z,88.60
2018-11-23T03:59:59.556Z,88.80
2018-11-23T04:02:28.364Z,88.50
2018-11-23T04:04:57.613Z,88.60
2018-11-23T04:07:26.397Z,88.70
2018-11-23T04:09:55.293Z,88.80
2018-11-23T04:12:24.085Z,88.80
2018-11-23T04:14:52.867Z,88.80
2018-11-23T04:17:21.633Z,89.00
2018-11-23T04:19:50.459Z,89.00
2018-11-23T04:22:19.296Z,88.90
2018-11-23T04:24:48.036Z,88.80
2018-11-23T04:27:16.837Z,89.00
2018-11-23T04:29:45.610Z,88.90
2018-11-23T04:32:14.388Z,88.50
2018-11-23T04:34:43.155Z,88.50
2018-11-23T04:37:12.024Z,88.30
2018-11-23T04:39:40.818Z,88.00
2018-11-23T04:42:09.586Z,87.60
2018-11-23T04:44:38.433Z,87.60
2018-11-23T04:47:07.238Z,87.40
2018-11-23T04:49:36.059Z,87.10
2018-11-23T04:52:04.893Z,87.10
2018-11-23T04:54:33.704Z,87.30
2018-11-23T04:57:02.782Z,87.20
2018-11-23T04:59:32.109Z,87.40
2018-11-23T05:02:00.896Z,87.40
2018-11-23T05:04:29.702Z,87.60
2018-11-23T05:06:58.463Z,88.20
2018-11-23T05:09:27.220Z,88.30
2018-11-23T05:11:56.028Z,88.20
2018-11-23T05:14:24.813Z,87.80
2018-11-23T05:16:53.633Z,87.60
2018-11-23T05:19:22.421Z,87.70
2018-11-23T05:21:51.209Z,87.40
2018-11-23T05:24:19.992Z,87.00
2018-11-23T05:26:48.854Z,86.90
2018-11-23T05:29:17.633Z,86.50
2018-11-23T05:31:46.421Z,86.40
2018-11-23T05:34:15.197Z,86.20
2018-11-23T05:36:43.986Z,86.50
2018-11-23T05:39:12.770Z,86.70
2018-11-23T05:41:41.605Z,86.70
2018-11-23T05:44:10.409Z,86.50
2018-11-23T05:46:42.425Z,86.30
2018-11-23T05:49:11.346Z,86.20
2018-11-23T05:51:40.130Z,86.00
2018-11-23T05:54:08.912Z,85.50
2018-11-23T05:56:37.690Z,85.70
2018-11-23T05:59:06.467Z,85.90
2018-11-23T06:01:35.272Z,86.00
2018-11-23T06:04:04.106Z,86.10
2018-11-23T06:06:32.919Z,86.20
2018-11-23T06:09:01.677Z,86.40
2018-11-23T06:11:30.445Z,86.40
2018-11-23T06:13:59.308Z,87.00
2018-11-23T06:16:28.100Z,87.50
2018-11-23T06:18:56.877Z,87.80
2018-11-23T06:21:25.653Z,87.60
2018-11-23T06:23:54.753Z,87.70
2018-11-23T06:26:25.437Z,87.80
2018-11-23T06:28:54.197Z,87.80
2018-11-23T06:31:22.994Z,88.00
2018-11-23T06:33:51.773Z,88.00
2018-11-23T06:36:20.552Z,88.00
2018-11-23T06:38:49.311Z,87.80
2018-11-23T06:41:18.115Z,87.70
2018-11-23T06:43:47.408Z,87.30
2018-11-23T06:46:16.177Z,88.00
2018-11-23T06:48:44.961Z,88.80
2018-11-23T06:51:13.741Z,87.60
2018-11-23T06:53:42.567Z,87.10
2018-11-23T06:56:11.311Z,87.00
2018-11-23T06:58:40.143Z,87.10
2018-11-23T07:01:08.918Z,87.20
2018-11-23T07:03:37.685Z,87.40
2018-11-23T07:06:06.473Z,87.50
2018-11-23T07:08:35.266Z,87.50
2018-11-23T07:11:04.197Z,87.30
2018-11-23T07:13:33.438Z,87.20
2018-11-23T07:16:02.242Z,87.20
2018-11-23T07:18:30.993Z,87.30
2018-11-23T07:20:59.782Z,87.60
2018-11-23T07:23:28.569Z,87.20
2018-11-23T07:25:57.357Z,86.80
2018-11-23T07:28:26.158Z,86.00
2018-11-23T07:30:58.337Z,85.30
2018-11-23T07:33:23.723Z,85.60
2018-11-23T07:35:52.542Z,85.30
2018-11-23T07:38:21.338Z,85.20
2018-11-23T07:41:01.638Z,85.00
2018-11-23T07:43:30.456Z,85.10
2018-11-23T07:45:59.248Z,84.90
2018-11-23T07:48:28.061Z,84.80
2018-11-23T07:50:56.837Z,84.60
2018-11-23T07:53:25.644Z,84.20
2018-11-23T07:55:54.417Z,83.70
2018-11-23T07:58:23.178Z,83.40
2018-11-23T08:00:51.954Z,82.50
2018-11-23T08:03:20.940Z,79.10
2018-11-23T08:05:49.698Z,74.70
2018-11-23T08:08:18.500Z,70.40
2018-11-23T08:10:46.534Z,66.80
2018-11-23T08:13:15.361Z,63.90
2018-11-23T08:15:44.147Z,61.80
2018-11-23T08:18:12.922Z,61.10
2018-11-23T08:20:41.757Z,59.40
2018-11-23T08:23:10.525Z,56.50
2018-11-23T08:25:39.344Z,53.10
2018-11-23T08:28:08.127Z,50.40
2018-11-23T08:30:36.942Z,49.60
2018-11-23T08:33:05.728Z,49.80
2018-11-23T08:35:34.530Z,50.30
2018-11-23T08:38:03.306Z,54.00
2018-11-23T08:40:32.067Z,57.50
2018-11-23T08:43:00.881Z,60.10
2018-11-23T08:45:29.688Z,62.60
2018-11-23T08:47:58.487Z,64.70
2018-11-23T08:50:28.725Z,65.70
2018-11-23T08:52:57.508Z,66.20
2018-11-23T08:55:26.721Z,62.40
2018-11-23T08:57:55.531Z,57.00
2018-11-23T09:00:26.324Z,52.50
2018-11-23T09:02:56.662Z,50.00
2018-11-23T09:05:25.454Z,47.90
2018-11-23T09:07:55.314Z,45.40
2018-11-23T09:10:26.526Z,43.50
2018-11-23T09:12:57.843Z,41.50
2018-11-23T09:15:26.612Z,39.10
2018-11-23T09:17:55.382Z,36.90
2018-11-23T09:20:24.191Z,34.70
2018-11-23T09:22:52.986Z,33.50
2018-11-23T09:25:22.632Z,33.30
2018-11-23T09:27:51.433Z,33.20
2018-11-23T09:30:22.597Z,33.70
2018-11-23T09:32:52.266Z,34.00
2018-11-23T09:35:21.088Z,33.20
2018-11-23T09:37:50.144Z,32.40
2018-11-23T09:40:20.296Z,31.80
2018-11-23T09:42:49.468Z,31.50
2018-11-23T09:45:20.413Z,32.80
2018-11-23T09:47:50.405Z,34.90
2018-11-23T09:50:20.446Z,36.10
2018-11-23T09:52:50.444Z,36.20
2018-11-23T09:55:19.860Z,36.50
2018-11-23T09:57:48.633Z,36.80
2018-11-23T10:00:20.818Z,37.50
2018-11-23T10:02:50.604Z,37.90
2018-11-23T10:05:19.778Z,38.60
2018-11-23T10:07:50.133Z,38.90
2018-11-23T10:10:19.864Z,38.80
2018-11-23T10:12:48.637Z,38.90
2018-11-23T10:15:18.265Z,38.70
2018-11-23T10:17:47.030Z,39.00
2018-11-23T10:20:17.621Z,38.50
2018-11-23T10:22:46.697Z,38.30
2018-11-23T10:25:17.013Z,40.00
2018-11-23T10:27:46.099Z,42.40
2018-11-23T10:30:17.107Z,44.70
2018-11-23T10:32:46.942Z,47.00
2018-11-23T10:35:15.721Z,49.10
2018-11-23T10:37:45.473Z,50.00
2018-11-23T10:40:16.090Z,51.00
2018-11-23T10:42:45.160Z,49.70
2018-11-23T10:45:15.809Z,49.40
2018-11-23T10:47:44.790Z,48.60
2018-11-23T10:50:15.522Z,48.70
2018-11-23T10:52:44.533Z,48.50
2018-11-23T10:55:15.745Z,48.50
2018-11-23T10:57:44.568Z,50.50
2018-11-23T11:00:19.649Z,51.60
2018-11-23T11:03:54.737Z,52.50
2018-11-23T11:06:28.988Z,53.00
2018-11-23T11:08:57.781Z,53.30
2018-11-23T11:11:26.569Z,52.80
2018-11-23T11:13:55.349Z,52.60
2018-11-23T11:16:24.142Z,53.20
2018-11-23T11:18:53.293Z,53.60
2018-11-23T11:21:22.071Z,53.20
2018-11-23T11:23:50.875Z,53.20
2018-11-23T11:26:19.650Z,53.20
2018-11-23T11:28:48.427Z,53.60
2018-11-23T11:31:17.301Z,53.00
2018-11-23T11:33:46.116Z,52.90
2018-11-23T11:36:14.901Z,53.30
2018-11-23T11:38:43.681Z,53.70
2018-11-23T11:41:12.467Z,53.30
2018-11-23T11:43:41.225Z,53.80
2018-11-23T11:46:10.472Z,54.00
2018-11-23T11:48:39.344Z,53.50
2018-11-23T11:51:08.696Z,53.80
2018-11-23T11:53:37.475Z,54.00
2018-11-23T11:56:06.850Z,53.50
2018-11-23T11:58:35.672Z,53.40
2018-11-23T12:01:04.840Z,52.70
2018-11-23T12:03:33.651Z,53.00
2018-11-23T12:06:02.405Z,52.80
2018-11-23T12:08:31.166Z,52.50
2018-11-23T12:10:59.969Z,52.00
2018-11-23T12:13:28.805Z,52.00
2018-11-23T12:15:57.593Z,52.00
2018-11-23T12:18:26.372Z,52.50
2018-11-23T12:20:55.186Z,51.70
2018-11-23T12:23:23.965Z,51.30
2018-11-23T12:25:53.369Z,51.20
2018-11-23T12:28:22.143Z,50.70
2018-11-23T12:30:50.948Z,51.50
2018-11-23T12:33:19.720Z,51.90
2018-11-23T12:35:48.524Z,51.30
2018-11-23T12:38:17.406Z,52.10
2018-11-23T12:40:46.209Z,52.30
2018-11-23T12:43:15.038Z,52.60
2018-11-23T12:45:43.829Z,52.10
2018-11-23T12:48:12.618Z,52.70
2018-11-23T12:50:41.463Z,53.50
2018-11-23T12:53:10.265Z,54.70
2018-11-23T12:55:39.068Z,54.50
2018-11-23T12:58:08.621Z,55.20
2018-11-23T13:00:37.422Z,55.50
2018-11-23T13:03:06.282Z,56.40
2018-11-23T13:05:35.688Z,57.20
2018-11-23T13:08:06.038Z,57.70
2018-11-23T13:10:34.867Z,57.70
2018-11-23T13:13:04.005Z,58.40
2018-11-23T13:15:32.816Z,58.10
2018-11-23T13:18:02.029Z,58.50
2018-11-23T13:20:30.864Z,58.20
2018-11-23T13:22:59.684Z,59.10
2018-11-23T13:25:30.805Z,58.70
2018-11-23T13:27:59.836Z,58.90
2018-11-23T13:30:31.063Z,59.10
2018-11-23T13:32:59.874Z,59.80
2018-11-23T13:35:28.636Z,59.50
2018-11-23T13:37:57.397Z,59.60
2018-11-23T13:40:27.251Z,59.30
2018-11-23T13:42:57.045Z,59.60
2018-11-23T13:45:27.302Z,59.90
2018-11-23T13:47:56.158Z,60.30
2018-11-23T13:50:25.576Z,60.40
2018-11-23T13:52:55.995Z,60.40
2018-11-23T13:55:24.818Z,60.40
2018-11-23T13:57:53.565Z,60.20
2018-11-23T14:00:25.521Z,61.10
2018-11-23T14:02:54.285Z,60.80
2018-11-23T14:05:27.626Z,61.00
2018-11-23T14:07:57.942Z,61.20
2018-11-23T14:10:27.537Z,61.40
2018-11-23T14:12:56.358Z,61.60
2018-11-23T14:15:27.507Z,61.60
2018-11-23T14:17:57.290Z,62.40
2018-11-23T14:20:26.692Z,62.40
2018-11-23T14:22:55.697Z,62.40
2018-11-23T14:25:26.613Z,62.90
2018-11-23T14:27:55.900Z,62.80
2018-11-23T14:30:26.320Z,63.30
2018-11-23T14:32:55.310Z,63.50
2018-11-23T14:35:25.657Z,63.30
2018-11-23T14:37:56.660Z,63.90
2018-11-23T14:40:25.413Z,64.20
2018-11-23T14:42:54.738Z,64.60
2018-11-23T14:45:32.886Z,64.80
2018-11-23T14:48:03.024Z,64.90
2018-11-23T14:50:32.976Z,64.50
2018-11-23T14:53:01.740Z,65.00
2018-11-23T14:55:30.866Z,65.30
2018-11-23T14:57:59.944Z,65.10
2018-11-23T15:00:35.348Z,65.20
2018-11-23T15:03:05.189Z,66.30
2018-11-23T15:05:34.272Z,66.00
2018-11-23T15:08:03.049Z,66.30
2018-11-23T15:10:32.879Z,66.30
2018-11-23T15:13:02.492Z,66.90
2018-11-23T15:15:34.650Z,67.10
2018-11-23T15:18:03.421Z,67.40
2018-11-23T15:20:36.856Z,68.00
2018-11-23T15:23:08.297Z,68.30
2018-11-23T15:25:37.057Z,68.20
2018-11-23T15:28:06.461Z,68.30
2018-11-23T15:30:36.284Z,68.50
2018-11-23T15:33:05.634Z,68.70
2018-11-23T15:35:35.481Z,68.90
2018-11-23T15:38:09.999Z,68.00
2018-11-23T15:40:33.569Z,68.90
2018-11-23T15:43:04.949Z,69.00
2018-11-23T15:45:34.561Z,69.10
2018-11-23T15:48:03.731Z,69.20
2018-11-23T15:50:33.982Z,69.60
2018-11-23T15:53:02.824Z,69.90
2018-11-23T15:55:33.063Z,70.30
2018-11-23T15:58:03.292Z,70.80
2018-11-23T16:00:34.437Z,71.20
2018-11-23T16:03:03.282Z,71.40
2018-11-23T16:05:32.093Z,71.60
2018-11-23T16:08:02.470Z,71.90
2018-11-23T16:10:33.481Z,72.00
2018-11-23T16:13:10.726Z,72.40
2018-11-23T16:15:32.516Z,72.30
2018-11-23T16:18:01.820Z,71.70
2018-11-23T16:20:34.825Z,72.60
2018-11-23T16:23:08.070Z,73.10
2018-11-23T16:25:36.904Z,73.40
2018-11-23T16:28:06.846Z,74.00
2018-11-23T16:30:37.210Z,74.00
2018-11-23T16:33:07.741Z,74.10
2018-11-23T16:35:37.705Z,75.00
2018-11-23T16:38:08.478Z,74.80
2018-11-23T16:40:38.829Z,75.40
2018-11-23T16:43:09.204Z,76.90
2018-11-23T16:45:38.631Z,77.10
2018-11-23T16:48:08.556Z,76.40
2018-11-23T16:50:37.366Z,77.10
2018-11-23T16:53:06.364Z,77.10
2018-11-23T16:56:11.579Z,77.20
2018-11-23T16:58:40.504Z,77.00
2018-11-23T17:01:09.978Z,77.90
2018-11-23T17:03:39.312Z,77.80
2018-11-23T17:06:08.677Z,77.90
2018-11-23T17:08:39.901Z,78.30
2018-11-23T17:11:06.274Z,77.90
2018-11-23T17:13:35.071Z,78.30
2018-11-23T17:16:03.977Z,78.90
2018-11-23T17:18:32.792Z,78.70
2018-11-23T17:21:01.605Z,78.90
2018-11-23T17:23:30.398Z,79.60
2018-11-23T17:25:59.158Z,79.70
2018-11-23T17:28:27.909Z,79.10
2018-11-23T17:30:56.666Z,78.90
2018-11-23T17:33:25.434Z,79.30
2018-11-23T17:35:54.198Z,79.00
2018-11-23T17:38:22.957Z,78.80
2018-11-23T17:40:51.716Z,80.10
2018-11-23T17:43:20.499Z,80.40
2018-11-23T17:45:49.324Z,80.50
2018-11-23T17:48:18.100Z,80.70
2018-11-23T17:50:46.893Z,81.00
2018-11-23T17:53:15.727Z,81.10
2018-11-23T17:55:44.524Z,81.70
2018-11-23T17:58:13.409Z,81.90
2018-11-23T18:00:42.221Z,82.60
2018-11-23T18:03:10.993Z,83.10
2018-11-23T18:05:39.786Z,83.50
2018-11-23T18:08:08.539Z,84.30
2018-11-23T18:10:37.317Z,84.20
2018-11-23T18:13:06.133Z,82.90
2018-11-23T18:15:35.566Z,82.50
2018-11-23T18:18:05.293Z,83.10
2018-11-23T18:20:34.477Z,82.50
2018-11-23T18:23:03.889Z,82.60
2018-11-23T18:25:34.438Z,82.20
2018-11-23T18:28:03.241Z,82.90
2018-11-23T18:30:33.651Z,82.70
2018-11-23T18:33:03.610Z,81.90
2018-11-23T18:35:32.370Z,81.60
2018-11-23T18:38:01.149Z,81.60
2018-11-23T18:40:36.972Z,81.90
2018-11-23T18:42:58.841Z,83.30
2018-11-23T18:45:27.721Z,81.70
2018-11-23T18:47:56.618Z,82.20
2018-11-23T18:50:25.374Z,82.40
2018-11-23T18:52:54.183Z,83.10
2018-11-23T18:55:22.924Z,83.50
2018-11-23T18:57:51.837Z,83.70
2018-11-23T19:00:20.625Z,83.30
2018-11-23T19:02:49.389Z,83.70
2018-11-23T19:05:21.555Z,83.10
2018-11-23T19:07:50.348Z,82.60
2018-11-23T19:10:19.122Z,83.10
2018-11-23T19:12:47.887Z,83.80
2018-11-23T19:15:20.169Z,83.50
2018-11-23T19:17:46.385Z,83.70
2018-11-23T19:20:16.157Z,83.40
2018-11-23T19:22:46.158Z,83.70
2018-11-23T19:25:15.000Z,83.30
2018-11-23T19:27:43.856Z,82.70
2018-11-23T19:30:13.933Z,81.80
2018-11-23T19:32:49.289Z,81.10
2018-11-23T19:35:18.110Z,80.40
2018-11-23T19:37:46.944Z,80.10
2018-11-23T19:40:16.093Z,80.00
2018-11-23T19:42:45.368Z,80.50
2018-11-23T19:45:16.096Z,80.80
2018-11-23T19:47:44.953Z,80.80
2018-11-23T19:50:15.800Z,80.40
2018-11-23T19:52:44.589Z,80.10
2018-11-23T19:55:14.377Z,79.60
2018-11-23T19:57:43.192Z,79.30
2018-11-23T20:00:15.393Z,78.80
2018-11-23T20:02:44.328Z,78.80
2018-11-23T20:05:13.173Z,78.80
2018-11-23T20:07:41.981Z,78.60
2018-11-23T20:10:13.428Z,78.50
2018-11-23T20:12:42.593Z,78.60
2018-11-23T20:15:13.791Z,78.70
2018-11-23T20:17:42.651Z,79.10
2018-11-23T20:20:12.548Z,79.40
2018-11-23T20:22:41.354Z,79.50
2018-11-23T20:25:12.518Z,79.60
2018-11-23T20:27:41.332Z,79.80
2018-11-23T20:30:12.309Z,80.50
2018-11-23T20:32:41.083Z,80.10
2018-11-23T20:35:12.142Z,80.70
2018-11-23T20:37:41.033Z,80.90
2018-11-23T20:40:13.026Z,80.90
2018-11-23T20:42:41.805Z,81.30
2018-11-23T20:45:11.548Z,81.30
2018-11-23T20:47:40.451Z,80.90
2018-11-23T20:50:10.414Z,81.00
2018-11-23T20:52:39.258Z,81.10
2018-11-23T20:55:18.925Z,80.90
2018-11-23T20:57:47.725Z,80.80
2018-11-23T21:00:23.190Z,81.10
2018-11-23T21:02:52.585Z,81.10
2018-11-23T21:05:21.986Z,81.20
2018-11-23T21:07:51.840Z,82.00
2018-11-23T21:10:23.663Z,81.50
2018-11-23T21:12:52.681Z,81.70
2018-11-23T21:15:26.598Z,82.50
2018-11-23T21:17:56.036Z,82.80
2018-11-23T21:20:24.817Z,82.50
2018-11-23T21:22:53.596Z,82.50
2018-11-23T21:25:22.380Z,82.10
2018-11-23T21:27:51.682Z,82.90
2018-11-23T21:30:22.336Z,83.10
2018-11-23T21:32:51.825Z,83.40
2018-11-23T21:35:20.629Z,83.20
2018-11-23T21:37:49.451Z,83.30
2018-11-23T21:40:18.200Z,83.20
2018-11-23T21:42:46.992Z,83.50
2018-11-23T21:45:16.706Z,83.80
2018-11-23T21:47:45.524Z,83.70
2018-11-23T21:50:16.150Z,83.90
2018-11-23T21:52:44.934Z,84.00
2018-11-23T21:55:16.920Z,84.60
2018-11-23T21:57:45.690Z,85.60
2018-11-23T22:00:15.147Z,85.00
2018-11-23T22:02:44.028Z,85.40
2018-11-23T22:05:12.834Z,85.90
2018-11-23T22:07:41.653Z,85.60
2018-11-23T22:10:13.180Z,85.50
2018-11-23T22:12:41.967Z,85.60
2018-11-23T22:15:13.101Z,85.50
2018-11-23T22:17:41.897Z,86.20
2018-11-23T22:20:18.691Z,86.00
2018-11-23T22:22:47.470Z,86.10
2018-11-23T22:25:17.486Z,85.80
2018-11-23T22:27:46.370Z,85.70
2018-11-23T22:30:19.577Z,85.90
2018-11-23T22:32:48.339Z,86.20
2018-11-23T22:35:17.225Z,86.10
2018-11-23T22:37:45.989Z,86.30
2018-11-23T22:40:15.954Z,85.90
2018-11-23T22:42:46.850Z,86.40
2018-11-23T22:45:16.186Z,86.50
2018-11-23T22:47:45.034Z,86.60
2018-11-23T22:50:18.171Z,86.70
2018-11-23T22:52:47.787Z,86.70
2018-11-23T22:55:16.390Z,86.50
2018-11-23T22:57:45.178Z,86.70
2018-11-23T23:00:21.288Z,86.90
2018-11-23T23:02:50.368Z,86.70
2018-11-23T23:05:20.317Z,86.60
2018-11-23T23:07:49.101Z,86.80
2018-11-23T23:10:17.950Z,87.10
2018-11-23T23:12:46.749Z,87.40
2018-11-23T23:15:15.549Z,87.00
2018-11-23T23:17:44.471Z,87.00
2018-11-23T23:20:15.633Z,87.20
2018-11-23T23:22:44.389Z,87.30
2018-11-23T23:25:13.502Z,87.40
2018-11-23T23:27:42.301Z,87.20
2018-11-23T23:35:12.578Z,87.20
2018-11-23T23:37:41.621Z,87.70
2018-11-23T23:40:12.389Z,87.90
2018-11-23T23:42:41.191Z,87.80
2018-11-23T23:45:10.894Z,88.00
2018-11-23T23:47:39.714Z,87.60
2018-11-23T23:50:11.662Z,87.70
2018-11-23T23:52:40.469Z,88.00
2018-11-23T23:55:09.813Z,87.90
2018-11-23T23:57:39.312Z,87.80
